Delhi, Iowa
Current Conditions -  °F | °C
As of 9:35 AM on Thursday 23 Oct 2014 (Local Time) from KMXO Reporting Station
Haze Haze  
Wind Chill:   Ceiling: 5500
Heat Index:   Visibility: 6mi
Dew Point:   Wind: 10mph
Humidity: 87%   Direction: 160°SSE
Pressure: 30.1"   Gusts: NA
Location:  42.43°N, 91.33°W
Report Text: KMXO 231435Z AUTO 16009KT 6SM BR SCT031 SCT046 BKN055 08/06 A3010 RMK AO2
Loading
Personal Weather Stations






























Interactive Weather Map
Tropical Storm Tracking
New forecast layout! Learn more

10-Day Weather Forecast

Advertisements
Track Severe Weather on mobile